createdAt,value
2023-05-14T00:00:04.323Z,43.66
2023-05-14T00:01:04.308Z,42.59
2023-05-14T00:02:04.340Z,42.32
2023-05-14T00:03:04.489Z,45.54
2023-05-14T00:04:04.383Z,42.97
2023-05-14T00:05:04.713Z,45.55
2023-05-14T00:06:04.307Z,46.60
2023-05-14T00:07:04.280Z,44.32
2023-05-14T00:08:04.265Z,45.70
2023-05-14T00:09:04.272Z,42.51
2023-05-14T00:10:04.276Z,42.70
2023-05-14T00:11:04.222Z,42.19
2023-05-14T00:12:04.239Z,42.01
2023-05-14T00:13:04.234Z,41.25
2023-05-14T00:14:04.235Z,41.90
2023-05-14T00:15:04.229Z,41.66
2023-05-14T00:16:04.739Z,44.37
2023-05-14T00:17:04.201Z,43.87
2023-05-14T00:18:04.204Z,45.88
2023-05-14T00:19:04.221Z,43.28
2023-05-14T00:20:05.206Z,44.59
2023-05-14T00:21:04.166Z,40.29
2023-05-14T00:22:04.166Z,42.66
2023-05-14T00:23:04.134Z,45.60
2023-05-14T00:24:04.141Z,45.44
2023-05-14T00:25:04.163Z,43.88
2023-05-14T00:26:04.174Z,41.16
2023-05-14T00:27:04.136Z,43.75
2023-05-14T00:28:04.132Z,41.47
2023-05-14T00:29:04.110Z,44.01
2023-05-14T00:30:04.213Z,41.55
2023-05-14T00:31:04.728Z,43.02
2023-05-14T00:32:04.126Z,44.93
2023-05-14T00:33:04.263Z,43.91
2023-05-14T00:34:04.708Z,41.69
2023-05-14T00:35:04.246Z,41.61
2023-05-14T00:36:04.082Z,40.21
2023-05-14T00:37:04.728Z,43.92
2023-05-14T00:38:04.047Z,40.62
2023-05-14T00:39:04.053Z,39.16
2023-05-14T00:40:04.064Z,42.64
2023-05-14T00:41:04.017Z,40.37
2023-05-14T00:42:04.046Z,42.28
2023-05-14T00:43:04.021Z,41.99
2023-05-14T00:44:04.023Z,44.19
2023-05-14T00:45:04.254Z,39.91
2023-05-14T00:46:03.995Z,39.76
2023-05-14T00:47:04.078Z,42.06
2023-05-14T00:48:04.023Z,42.83
2023-05-14T00:49:06.186Z,40.40
2023-05-14T00:50:04.201Z,39.81
2023-05-14T00:51:03.983Z,42.43
2023-05-14T00:52:03.967Z,39.42
2023-05-14T00:53:03.941Z,42.41
2023-05-14T00:54:04.920Z,42.57
2023-05-14T00:55:04.259Z,42.41
2023-05-14T00:56:03.935Z,42.84
2023-05-14T00:57:03.936Z,38.06
2023-05-14T00:58:03.883Z,41.67
2023-05-14T00:59:03.941Z,40.75
2023-05-14T01:00:03.904Z,40.75
2023-05-14T01:01:03.963Z,42.75
2023-05-14T01:02:03.887Z,36.66
2023-05-14T01:03:03.912Z,35.61
2023-05-14T01:04:04.000Z,37.71
2023-05-14T01:05:04.261Z,38.69
2023-05-14T01:06:03.840Z,37.24
2023-05-14T01:07:03.844Z,39.64
2023-05-14T01:08:03.853Z,37.61
2023-05-14T01:09:03.828Z,37.25
2023-05-14T01:10:03.823Z,38.63
2023-05-14T01:11:03.844Z,38.09
2023-05-14T01:12:03.827Z,36.01
2023-05-14T01:13:03.801Z,39.09
2023-05-14T01:14:03.790Z,37.81
2023-05-14T01:15:04.213Z,36.24
2023-05-14T01:16:03.867Z,37.99
2023-05-14T01:17:04.717Z,34.71
2023-05-14T01:18:03.909Z,38.07
2023-05-14T01:19:03.889Z,36.53
2023-05-14T01:20:04.343Z,36.27
2023-05-14T01:21:03.841Z,36.91
2023-05-14T01:22:03.866Z,35.98
2023-05-14T01:23:03.896Z,38.58
2023-05-14T01:24:03.891Z,38.52
2023-05-14T01:25:03.887Z,39.60
2023-05-14T01:26:03.874Z,38.25
2023-05-14T01:27:03.887Z,38.60
2023-05-14T01:28:03.935Z,37.51
2023-05-14T01:29:03.909Z,35.66
2023-05-14T01:30:04.247Z,37.04
2023-05-14T01:31:03.945Z,39.07
2023-05-14T01:32:04.057Z,39.24
2023-05-14T01:33:04.015Z,35.27
2023-05-14T01:34:03.963Z,34.42
2023-05-14T01:35:03.989Z,36.47
2023-05-14T01:36:03.975Z,37.29
2023-05-14T01:37:03.981Z,39.02
2023-05-14T01:38:03.999Z,36.39
2023-05-14T01:39:04.037Z,40.30
2023-05-14T01:40:04.622Z,37.59
2023-05-14T01:41:04.026Z,36.95
2023-05-14T01:42:04.004Z,35.95
2023-05-14T01:43:04.026Z,36.78
2023-05-14T01:44:04.002Z,35.71
2023-05-14T01:45:04.251Z,32.91
2023-05-14T01:46:04.094Z,35.55
2023-05-14T01:47:04.020Z,32.94
2023-05-14T01:48:04.049Z,35.06
2023-05-14T01:49:04.007Z,32.94
2023-05-14T01:50:04.271Z,36.03
2023-05-14T01:51:04.055Z,34.92
2023-05-14T01:52:04.027Z,38.29
2023-05-14T01:53:04.075Z,36.53
2023-05-14T01:54:04.022Z,33.22
2023-05-14T01:55:04.249Z,30.67
2023-05-14T01:56:04.757Z,36.09
2023-05-14T01:57:04.078Z,34.11
2023-05-14T01:58:04.045Z,37.81
2023-05-14T01:59:04.101Z,37.35
2023-05-14T02:00:04.071Z,38.01
2023-05-14T02:01:04.127Z,37.78
2023-05-14T02:02:04.066Z,35.08
2023-05-14T02:03:04.126Z,35.48
2023-05-14T02:04:04.203Z,36.53
2023-05-14T02:05:06.847Z,33.49
2023-05-14T02:06:04.080Z,37.96
2023-05-14T02:07:04.084Z,29.13
2023-05-14T02:08:04.102Z,37.86
2023-05-14T02:09:04.054Z,34.40
2023-05-14T02:10:04.082Z,33.40
2023-05-14T02:11:04.279Z,36.14
2023-05-14T02:12:04.055Z,35.43
2023-05-14T02:13:04.018Z,34.85
2023-05-14T02:14:04.048Z,33.21
2023-05-14T02:15:04.075Z,36.34
2023-05-14T02:16:04.339Z,37.59
2023-05-14T02:17:04.029Z,35.82
2023-05-14T02:18:04.011Z,33.80
2023-05-14T02:19:04.864Z,34.77
2023-05-14T02:20:03.975Z,37.07
2023-05-14T02:21:04.772Z,35.78
2023-05-14T02:22:04.788Z,33.18
2023-05-14T02:23:03.950Z,35.17
2023-05-14T02:24:04.010Z,35.97
2023-05-14T02:25:03.948Z,33.19
2023-05-14T02:26:04.286Z,31.28
2023-05-14T02:27:03.987Z,36.91
2023-05-14T02:28:03.919Z,34.53
2023-05-14T02:29:03.929Z,32.96
2023-05-14T02:30:03.919Z,29.93
2023-05-14T02:31:05.323Z,35.96
2023-05-14T02:32:04.002Z,30.96
2023-05-14T02:33:04.089Z,35.71
2023-05-14T02:34:03.921Z,33.55
2023-05-14T02:35:03.907Z,32.52
2023-05-14T02:36:03.874Z,29.13
2023-05-14T02:37:03.884Z,32.11
2023-05-14T02:38:03.898Z,32.45
2023-05-14T02:39:03.866Z,34.93
2023-05-14T02:40:03.882Z,30.12
2023-05-14T02:41:04.275Z,28.52
2023-05-14T02:42:03.883Z,31.17
2023-05-14T02:43:03.853Z,27.41
2023-05-14T02:44:03.816Z,30.95
2023-05-14T02:45:03.838Z,29.25
2023-05-14T02:46:04.269Z,28.28
2023-05-14T02:47:03.860Z,31.88
2023-05-14T02:48:03.865Z,32.30
2023-05-14T02:49:03.799Z,32.92
2023-05-14T02:50:04.799Z,28.76
2023-05-14T02:51:03.847Z,33.07
2023-05-14T02:52:03.779Z,29.61
2023-05-14T02:53:03.793Z,31.16
2023-05-14T02:54:04.302Z,32.43
2023-05-14T02:55:03.748Z,28.48
2023-05-14T02:56:03.793Z,29.10
2023-05-14T02:57:03.713Z,30.84
2023-05-14T02:58:03.731Z,29.15
2023-05-14T02:59:03.736Z,29.47
2023-05-14T03:00:03.734Z,32.95
2023-05-14T03:01:03.961Z,31.43
2023-05-14T03:02:03.830Z,28.90
2023-05-14T03:03:03.702Z,26.51
2023-05-14T03:04:03.716Z,29.46
2023-05-14T03:05:03.722Z,29.22
2023-05-14T03:06:03.826Z,31.48
2023-05-14T03:07:03.674Z,28.38
2023-05-14T03:08:03.692Z,29.51
2023-05-14T03:09:03.691Z,29.80
2023-05-14T03:10:03.654Z,28.86
2023-05-14T03:11:03.807Z,28.73
2023-05-14T03:12:03.629Z,30.87
2023-05-14T03:13:03.605Z,29.09
2023-05-14T03:14:03.608Z,28.08
2023-05-14T03:15:03.627Z,26.65
2023-05-14T03:16:03.837Z,32.00
2023-05-14T03:17:03.743Z,27.03
2023-05-14T03:18:03.661Z,32.45
2023-05-14T03:19:03.664Z,29.44
2023-05-14T03:20:03.593Z,28.52
2023-05-14T03:21:03.850Z,33.51
2023-05-14T03:22:03.587Z,28.75
2023-05-14T03:23:03.585Z,26.83
2023-05-14T03:24:03.550Z,30.19
2023-05-14T03:25:03.548Z,28.70
2023-05-14T03:26:03.564Z,29.05
2023-05-14T03:27:03.534Z,27.61
2023-05-14T03:28:03.501Z,28.03
2023-05-14T03:29:03.530Z,29.62
2023-05-14T03:30:03.516Z,27.24
2023-05-14T03:31:03.919Z,29.12
2023-05-14T03:32:03.489Z,29.46
2023-05-14T03:33:03.525Z,26.20
2023-05-14T03:34:03.485Z,26.68
2023-05-14T03:35:03.665Z,27.86
2023-05-14T03:36:03.522Z,29.04
2023-05-14T03:37:03.466Z,27.10
2023-05-14T03:38:03.470Z,32.66
2023-05-14T03:39:03.446Z,30.85
2023-05-14T03:40:03.476Z,28.51
2023-05-14T03:41:03.851Z,26.80
2023-05-14T03:42:03.448Z,27.33
2023-05-14T03:43:03.466Z,27.49
2023-05-14T03:44:03.457Z,29.47
2023-05-14T03:45:03.528Z,27.77
2023-05-14T03:46:03.832Z,28.34
2023-05-14T03:47:03.393Z,27.33
2023-05-14T03:48:03.571Z,32.79
2023-05-14T03:49:03.541Z,28.45
2023-05-14T03:50:03.389Z,31.04
2023-05-14T03:51:03.394Z,27.83
2023-05-14T03:52:03.368Z,26.20
2023-05-14T03:53:03.370Z,28.67
2023-05-14T03:54:03.336Z,31.45
2023-05-14T03:55:03.382Z,31.62
2023-05-14T03:56:03.829Z,29.33
2023-05-14T03:57:03.317Z,30.83
2023-05-14T03:58:03.332Z,30.60
2023-05-14T03:59:03.299Z,32.74
2023-05-14T04:00:03.339Z,33.74
2023-05-14T04:01:03.321Z,31.87
2023-05-14T04:02:03.280Z,33.53
2023-05-14T04:03:03.359Z,32.64
2023-05-14T04:04:03.344Z,34.08
2023-05-14T04:05:03.286Z,30.43
2023-05-14T04:06:03.260Z,33.27
2023-05-14T04:07:03.288Z,28.29
2023-05-14T04:08:03.276Z,30.34
2023-05-14T04:09:03.336Z,31.41
2023-05-14T04:10:04.365Z,33.28
2023-05-14T04:11:03.289Z,31.20
2023-05-14T04:12:03.296Z,26.48
2023-05-14T04:13:03.295Z,29.30
2023-05-14T04:14:03.257Z,30.21
2023-05-14T04:15:03.319Z,31.21
2023-05-14T04:16:03.306Z,27.58
2023-05-14T04:17:03.290Z,30.06
2023-05-14T04:18:03.272Z,30.41
2023-05-14T04:19:03.330Z,30.45
2023-05-14T04:20:03.292Z,28.44
2023-05-14T04:21:03.274Z,27.70
2023-05-14T04:22:03.285Z,28.52
2023-05-14T04:23:03.289Z,30.03
2023-05-14T04:24:03.283Z,30.27
2023-05-14T04:25:03.422Z,27.20
2023-05-14T04:26:03.343Z,30.34
2023-05-14T04:27:03.292Z,31.36
2023-05-14T04:28:03.298Z,30.97
2023-05-14T04:29:03.385Z,31.91
2023-05-14T04:30:03.328Z,29.79
2023-05-14T04:31:03.330Z,31.19
2023-05-14T04:32:03.395Z,27.22
2023-05-14T04:33:03.373Z,27.96
2023-05-14T04:34:03.299Z,31.00
2023-05-14T04:35:03.350Z,31.32
2023-05-14T04:36:03.391Z,26.58
2023-05-14T04:37:03.359Z,29.33
2023-05-14T04:38:03.371Z,26.42
2023-05-14T04:39:03.367Z,28.10
2023-05-14T04:40:03.382Z,32.44
2023-05-14T04:41:03.811Z,29.97
2023-05-14T04:42:03.358Z,25.70
2023-05-14T04:43:03.394Z,27.97
2023-05-14T04:44:03.379Z,27.14
2023-05-14T04:45:03.414Z,25.65
2023-05-14T04:46:03.416Z,29.92
2023-05-14T04:47:03.421Z,27.95
2023-05-14T04:48:03.487Z,28.11
2023-05-14T04:49:03.376Z,29.87
2023-05-14T04:50:03.442Z,28.69
2023-05-14T04:51:05.577Z,33.80
2023-05-14T04:52:03.407Z,35.63
2023-05-14T04:53:03.404Z,29.27
2023-05-14T04:54:03.463Z,29.73
2023-05-14T04:55:03.431Z,27.54
2023-05-14T04:56:03.383Z,27.93
2023-05-14T04:57:03.407Z,25.04
2023-05-14T04:58:03.409Z,29.54
2023-05-14T04:59:03.404Z,26.98
2023-05-14T05:00:03.343Z,28.88
2023-05-14T05:01:03.402Z,31.13
2023-05-14T05:02:03.351Z,26.41
2023-05-14T05:03:03.543Z,30.71
2023-05-14T05:04:03.417Z,30.02
2023-05-14T05:05:03.325Z,25.56
2023-05-14T05:06:03.327Z,27.75
2023-05-14T05:07:03.324Z,29.93
2023-05-14T05:08:03.305Z,26.86
2023-05-14T05:09:03.319Z,31.33
2023-05-14T05:10:03.286Z,31.91
2023-05-14T05:11:03.281Z,25.86
2023-05-14T05:12:03.302Z,28.38
2023-05-14T05:13:03.275Z,28.67
2023-05-14T05:14:03.275Z,25.93
2023-05-14T05:15:03.256Z,30.78
2023-05-14T05:16:03.288Z,29.87
2023-05-14T05:17:03.225Z,30.12
2023-05-14T05:18:03.254Z,30.18
2023-05-14T05:19:03.317Z,29.52
2023-05-14T05:20:03.218Z,29.31
2023-05-14T05:21:03.256Z,28.21
2023-05-14T05:22:03.254Z,31.04
2023-05-14T05:23:03.175Z,27.48
2023-05-14T05:24:03.201Z,30.41
2023-05-14T05:25:03.187Z,29.91
2023-05-14T05:26:03.224Z,29.19
2023-05-14T05:27:03.210Z,31.90
2023-05-14T05:28:03.176Z,30.12
2023-05-14T05:29:03.199Z,26.70
2023-05-14T05:30:03.208Z,32.99
2023-05-14T05:31:03.204Z,33.22
2023-05-14T05:32:03.143Z,27.15
2023-05-14T05:33:03.226Z,32.09
2023-05-14T05:34:03.147Z,28.21
2023-05-14T05:35:03.154Z,30.11
2023-05-14T05:36:03.121Z,27.41
2023-05-14T05:37:03.165Z,32.69
2023-05-14T05:38:03.101Z,30.26
2023-05-14T05:39:03.104Z,32.70
2023-05-14T05:40:03.084Z,28.67
2023-05-14T05:41:03.130Z,30.98
2023-05-14T05:42:03.090Z,32.44
2023-05-14T05:43:03.065Z,29.50
2023-05-14T05:44:03.091Z,29.94
2023-05-14T05:45:03.841Z,30.30
2023-05-14T05:46:03.094Z,30.78
2023-05-14T05:47:03.097Z,26.76
2023-05-14T05:48:03.069Z,27.28
2023-05-14T05:49:03.086Z,31.03
2023-05-14T05:50:03.033Z,27.94
2023-05-14T05:51:03.016Z,25.73
2023-05-14T05:52:03.004Z,33.29
2023-05-14T05:53:02.997Z,31.92
2023-05-14T05:54:03.001Z,33.89
2023-05-14T05:55:03.015Z,28.85
2023-05-14T05:56:03.015Z,32.14
2023-05-14T05:57:02.992Z,28.48
2023-05-14T05:58:02.961Z,28.32
2023-05-14T05:59:02.946Z,27.12
2023-05-14T06:00:02.940Z,31.20
2023-05-14T06:01:02.955Z,27.43
2023-05-14T06:02:02.986Z,27.96
2023-05-14T06:03:02.972Z,26.26
2023-05-14T06:04:02.936Z,30.68
2023-05-14T06:05:02.994Z,27.63
2023-05-14T06:06:02.944Z,29.13
2023-05-14T06:07:02.955Z,29.05
2023-05-14T06:08:02.890Z,30.95
2023-05-14T06:09:02.932Z,29.73
2023-05-14T06:10:02.910Z,32.44
2023-05-14T06:11:02.861Z,29.96
2023-05-14T06:12:02.872Z,30.18
2023-05-14T06:13:02.852Z,32.34
2023-05-14T06:14:02.864Z,33.33
2023-05-14T06:15:02.907Z,33.20
2023-05-14T06:16:02.898Z,31.23
2023-05-14T06:17:02.890Z,30.77
2023-05-14T06:18:03.024Z,32.77
2023-05-14T06:19:02.917Z,33.29
2023-05-14T06:20:02.830Z,31.79
2023-05-14T06:21:02.841Z,29.92
2023-05-14T06:22:02.815Z,30.18
2023-05-14T06:23:02.814Z,29.41
2023-05-14T06:24:02.793Z,30.51
2023-05-14T06:25:02.771Z,30.20
2023-05-14T06:26:02.807Z,32.22
2023-05-14T06:27:02.916Z,33.45
2023-05-14T06:28:02.781Z,35.00
2023-05-14T06:29:02.750Z,34.52
2023-05-14T06:30:02.762Z,32.27
2023-05-14T06:31:02.764Z,30.19
2023-05-14T06:32:02.785Z,32.70
2023-05-14T06:33:02.768Z,31.83
2023-05-14T06:34:02.734Z,28.37
2023-05-14T06:35:02.747Z,32.78
2023-05-14T06:36:02.689Z,32.03
2023-05-14T06:37:02.697Z,28.81
2023-05-14T06:38:02.722Z,32.46
2023-05-14T06:39:02.698Z,28.76
2023-05-14T06:40:02.704Z,29.31
2023-05-14T06:41:02.714Z,33.25
2023-05-14T06:42:02.720Z,29.95
2023-05-14T06:43:02.690Z,36.02
2023-05-14T06:44:02.682Z,34.41
2023-05-14T06:45:02.703Z,30.70
2023-05-14T06:46:02.663Z,34.48
2023-05-14T06:47:02.875Z,33.20
2023-05-14T06:48:02.752Z,31.75
2023-05-14T06:49:02.716Z,33.23
2023-05-14T06:50:02.599Z,31.94
2023-05-14T06:51:02.630Z,35.24
2023-05-14T06:52:02.612Z,34.11
2023-05-14T06:53:02.636Z,34.62
2023-05-14T06:54:02.638Z,32.47
2023-05-14T06:55:02.635Z,38.50
2023-05-14T06:56:02.645Z,38.28
2023-05-14T06:57:02.918Z,36.96
2023-05-14T06:58:02.645Z,32.14
2023-05-14T06:59:02.684Z,36.82
2023-05-14T07:00:03.685Z,33.98
2023-05-14T07:01:02.758Z,35.11
2023-05-14T07:02:02.670Z,29.65
2023-05-14T07:03:02.713Z,37.27
2023-05-14T07:04:02.713Z,34.03
2023-05-14T07:05:02.722Z,34.86
2023-05-14T07:06:02.701Z,37.47
2023-05-14T07:07:02.696Z,34.14
2023-05-14T07:08:02.750Z,37.38
2023-05-14T07:09:02.766Z,34.07
2023-05-14T07:10:02.771Z,37.75
2023-05-14T07:11:02.807Z,36.21
2023-05-14T07:12:02.813Z,33.96
2023-05-14T07:13:02.797Z,36.09
2023-05-14T07:14:02.785Z,34.62
2023-05-14T07:15:02.815Z,36.93
2023-05-14T07:16:02.836Z,37.61
2023-05-14T07:17:02.917Z,37.56
2023-05-14T07:18:02.883Z,36.42
2023-05-14T07:19:02.889Z,36.26
2023-05-14T07:20:02.852Z,34.93
2023-05-14T07:21:02.883Z,37.94
2023-05-14T07:22:02.877Z,33.72
2023-05-14T07:23:02.877Z,36.89
2023-05-14T07:24:02.895Z,37.22
2023-05-14T07:25:02.915Z,39.71
2023-05-14T07:26:02.901Z,36.71
2023-05-14T07:27:02.901Z,38.52
2023-05-14T07:28:02.911Z,34.96
2023-05-14T07:29:02.923Z,36.47
2023-05-14T07:30:02.921Z,34.88
2023-05-14T07:31:03.020Z,35.43
2023-05-14T07:32:03.048Z,34.81
2023-05-14T07:33:03.027Z,34.71
2023-05-14T07:34:02.996Z,32.90
2023-05-14T07:35:02.962Z,32.92
2023-05-14T07:36:02.997Z,34.47
2023-05-14T07:37:03.007Z,32.39
2023-05-14T07:38:03.051Z,32.31
2023-05-14T07:39:03.024Z,34.69
2023-05-14T07:40:03.062Z,33.59
2023-05-14T07:41:03.068Z,31.44
2023-05-14T07:42:03.051Z,32.94
2023-05-14T07:43:03.051Z,33.62
2023-05-14T07:44:03.110Z,30.59
2023-05-14T07:45:03.100Z,34.37
2023-05-14T07:46:03.121Z,28.48
2023-05-14T07:47:03.146Z,35.63
2023-05-14T07:48:03.157Z,30.32
2023-05-14T07:49:03.121Z,34.43
2023-05-14T07:50:03.120Z,35.88
2023-05-14T07:51:03.136Z,36.51
2023-05-14T07:52:03.447Z,34.82
2023-05-14T07:53:03.158Z,35.60
2023-05-14T07:54:03.152Z,35.59
2023-05-14T07:55:03.165Z,39.02
2023-05-14T07:56:03.171Z,34.81
2023-05-14T07:57:03.189Z,36.04
2023-05-14T07:58:03.175Z,37.37
2023-05-14T07:59:03.902Z,39.13
2023-05-14T08:00:03.205Z,38.83
2023-05-14T08:01:03.275Z,36.59
2023-05-14T08:02:03.276Z,38.24
2023-05-14T08:03:03.409Z,37.31
2023-05-14T08:04:03.370Z,38.12
2023-05-14T08:05:03.255Z,34.70
2023-05-14T08:06:03.261Z,34.88
2023-05-14T08:07:03.277Z,29.96
2023-05-14T08:08:03.274Z,34.05
2023-05-14T08:09:03.277Z,34.98
2023-05-14T08:10:03.339Z,34.09
2023-05-14T08:11:03.342Z,35.97
2023-05-14T08:12:03.357Z,34.35
2023-05-14T08:13:03.397Z,37.33
2023-05-14T08:14:03.358Z,39.75
2023-05-14T08:15:03.366Z,35.78
2023-05-14T08:16:03.364Z,33.96
2023-05-14T08:17:03.445Z,32.30
2023-05-14T08:18:03.592Z,34.29
2023-05-14T08:19:03.437Z,32.05
2023-05-14T08:20:03.434Z,29.90
2023-05-14T08:21:03.799Z,28.84
2023-05-14T08:22:03.401Z,26.90
2023-05-14T08:23:03.430Z,25.68
2023-05-14T08:24:03.466Z,32.39
2023-05-14T08:25:03.449Z,31.23
2023-05-14T08:26:03.482Z,33.96
2023-05-14T08:27:03.506Z,34.15
2023-05-14T08:28:03.503Z,34.67
2023-05-14T08:29:03.502Z,32.65
2023-05-14T08:30:03.498Z,28.26
2023-05-14T08:31:03.534Z,25.00
2023-05-14T08:32:11.678Z,25.81
2023-05-14T08:33:04.615Z,26.23
2023-05-14T08:34:03.508Z,26.77
2023-05-14T08:35:03.551Z,28.85
2023-05-14T08:36:03.465Z,32.59
2023-05-14T08:37:03.927Z,32.22
2023-05-14T08:38:03.465Z,35.28
2023-05-14T08:39:03.488Z,32.74
2023-05-14T08:40:03.475Z,33.42
2023-05-14T08:41:03.439Z,36.23
2023-05-14T08:42:03.459Z,35.92
2023-05-14T08:43:03.408Z,36.48
2023-05-14T08:44:03.426Z,33.14
2023-05-14T08:45:03.430Z,33.61
2023-05-14T08:46:03.410Z,32.97
2023-05-14T08:47:03.402Z,37.02
2023-05-14T08:48:03.479Z,35.93
2023-05-14T08:49:03.444Z,32.11
2023-05-14T08:50:03.349Z,37.72
2023-05-14T08:51:03.417Z,35.19
2023-05-14T08:52:03.380Z,38.15
2023-05-14T08:53:03.348Z,37.16
2023-05-14T08:54:03.377Z,37.39
2023-05-14T08:55:03.334Z,39.22
2023-05-14T08:56:03.982Z,39.57
2023-05-14T08:57:03.338Z,39.01
2023-05-14T08:58:03.302Z,38.12
2023-05-14T08:59:03.291Z,38.55
2023-05-14T09:00:03.282Z,37.59
2023-05-14T09:01:03.289Z,38.62
2023-05-14T09:02:03.360Z,38.36
2023-05-14T09:03:03.348Z,41.21
2023-05-14T09:04:03.372Z,38.04
2023-05-14T09:05:03.303Z,33.74
2023-05-14T09:06:03.319Z,41.96
2023-05-14T09:07:03.339Z,36.68
2023-05-14T09:08:03.336Z,38.52
2023-05-14T09:09:03.385Z,36.33
2023-05-14T09:10:03.368Z,36.06
2023-05-14T09:11:03.337Z,36.29
2023-05-14T09:12:03.380Z,36.60
2023-05-14T09:13:03.377Z,37.92
2023-05-14T09:14:03.352Z,38.22
2023-05-14T09:15:03.355Z,38.14
2023-05-14T09:16:03.994Z,35.04
2023-05-14T09:17:03.346Z,38.12
2023-05-14T09:18:03.396Z,35.21
2023-05-14T09:19:03.363Z,41.84
2023-05-14T09:20:03.373Z,36.64
2023-05-14T09:21:03.373Z,41.57
2023-05-14T09:22:03.326Z,40.50
2023-05-14T09:23:03.353Z,40.62
2023-05-14T09:24:03.349Z,41.54
2023-05-14T09:25:03.368Z,40.44
2023-05-14T09:26:03.366Z,38.76
2023-05-14T09:27:03.368Z,41.48
2023-05-14T09:28:03.385Z,41.94
2023-05-14T09:29:03.401Z,41.98
2023-05-14T09:30:03.390Z,45.92
2023-05-14T09:31:03.463Z,43.51
2023-05-14T09:32:03.443Z,40.11
2023-05-14T09:33:03.457Z,42.25
2023-05-14T09:34:03.425Z,40.97
2023-05-14T09:35:03.452Z,39.62
2023-05-14T09:36:03.418Z,41.25
2023-05-14T09:37:03.482Z,45.06
2023-05-14T09:38:03.433Z,40.16
2023-05-14T09:39:03.434Z,40.00
2023-05-14T09:40:03.425Z,40.93
2023-05-14T09:41:03.450Z,47.10
2023-05-14T09:42:03.471Z,43.39
2023-05-14T09:43:03.397Z,43.53
2023-05-14T09:44:05.434Z,44.62
2023-05-14T09:45:03.406Z,43.34
2023-05-14T09:46:03.446Z,46.56
2023-05-14T09:47:03.427Z,48.14
2023-05-14T09:48:03.495Z,45.23
2023-05-14T09:49:03.379Z,45.38
2023-05-14T09:50:03.404Z,50.74
2023-05-14T09:51:04.779Z,46.21
2023-05-14T09:52:03.468Z,48.50
2023-05-14T09:53:03.387Z,42.05
2023-05-14T09:54:03.377Z,46.33
2023-05-14T09:55:03.357Z,46.76
2023-05-14T09:56:03.364Z,43.86
2023-05-14T09:57:03.321Z,49.14
2023-05-14T09:58:03.324Z,44.22
2023-05-14T09:59:03.361Z,46.47
2023-05-14T10:00:03.314Z,47.27
2023-05-14T10:01:03.339Z,47.20
2023-05-14T10:02:03.301Z,48.56
2023-05-14T10:03:03.370Z,48.09
2023-05-14T10:04:03.315Z,51.81
2023-05-14T10:05:03.265Z,50.39
2023-05-14T10:06:03.303Z,52.08
2023-05-14T10:07:03.261Z,53.08
2023-05-14T10:08:03.267Z,50.42
2023-05-14T10:09:03.271Z,53.71
2023-05-14T10:10:03.264Z,50.81
2023-05-14T10:11:03.260Z,55.53
2023-05-14T10:12:03.505Z,55.43
2023-05-14T10:13:03.224Z,53.31
2023-05-14T10:14:03.218Z,53.49
2023-05-14T10:15:03.203Z,51.83
2023-05-14T10:16:03.209Z,48.31
2023-05-14T10:17:03.224Z,51.31
2023-05-14T10:18:03.232Z,54.49
2023-05-14T10:19:03.214Z,56.06
2023-05-14T10:20:03.192Z,52.09
2023-05-14T10:21:03.195Z,51.06
2023-05-14T10:22:03.166Z,50.90
2023-05-14T10:23:03.172Z,52.52
2023-05-14T10:24:03.158Z,52.91
2023-05-14T10:25:03.143Z,53.59
2023-05-14T10:26:03.127Z,53.23
2023-05-14T10:27:03.147Z,51.40
2023-05-14T10:28:03.140Z,51.02
2023-05-14T10:29:03.149Z,55.42
2023-05-14T10:30:03.140Z,56.00
2023-05-14T10:31:03.120Z,53.64
2023-05-14T10:32:03.116Z,54.87
2023-05-14T10:33:03.188Z,56.82
2023-05-14T10:34:03.059Z,55.57
2023-05-14T10:35:03.180Z,55.67
2023-05-14T10:36:03.154Z,55.64
2023-05-14T10:37:03.064Z,52.67
2023-05-14T10:38:03.076Z,54.39
2023-05-14T10:39:03.052Z,55.67
2023-05-14T10:40:03.083Z,59.55
2023-05-14T10:41:03.128Z,54.81
2023-05-14T10:42:03.094Z,57.51
2023-05-14T10:43:03.048Z,54.57
2023-05-14T10:44:03.050Z,58.86
2023-05-14T10:45:03.000Z,55.34
2023-05-14T10:46:03.066Z,53.44
2023-05-14T10:47:03.202Z,59.24
2023-05-14T10:48:03.016Z,59.23
2023-05-14T10:49:02.996Z,57.64
2023-05-14T10:50:03.128Z,58.93
2023-05-14T10:51:03.191Z,58.44
2023-05-14T10:52:03.113Z,57.72
2023-05-14T10:53:03.566Z,61.07
2023-05-14T10:54:03.133Z,62.42
2023-05-14T10:55:03.934Z,58.20
2023-05-14T10:56:03.184Z,61.01
2023-05-14T10:57:03.217Z,56.19
2023-05-14T10:58:03.230Z,54.55
2023-05-14T10:59:03.273Z,58.74
2023-05-14T11:00:03.316Z,58.36
2023-05-14T11:01:03.325Z,60.81
2023-05-14T11:02:03.376Z,62.11
2023-05-14T11:03:03.468Z,61.87
2023-05-14T11:04:03.536Z,60.60
2023-05-14T11:05:03.475Z,59.28
2023-05-14T11:06:03.481Z,57.52
2023-05-14T11:07:03.485Z,61.05
2023-05-14T11:08:03.990Z,61.43
2023-05-14T11:09:03.571Z,59.82
2023-05-14T11:10:03.598Z,60.51
2023-05-14T11:11:03.665Z,61.79
2023-05-14T11:12:03.703Z,58.90
2023-05-14T11:13:03.667Z,60.58
2023-05-14T11:14:03.747Z,62.84
2023-05-14T11:15:03.769Z,62.70
2023-05-14T11:16:15.179Z,63.29
2023-05-14T11:17:04.785Z,63.47
2023-05-14T11:18:04.044Z,63.15
2023-05-14T11:19:04.006Z,62.93
2023-05-14T11:20:03.757Z,62.76
2023-05-14T11:21:03.776Z,64.89
2023-05-14T11:22:03.719Z,58.97
2023-05-14T11:23:03.754Z,63.68
2023-05-14T11:24:03.712Z,60.35
2023-05-14T11:25:03.736Z,66.12
2023-05-14T11:26:03.797Z,59.77
2023-05-14T11:27:03.702Z,61.79
2023-05-14T11:28:04.049Z,62.59
2023-05-14T11:29:03.721Z,62.75
2023-05-14T11:30:03.757Z,64.71
2023-05-14T11:31:03.821Z,61.30
2023-05-14T11:32:03.976Z,62.08
2023-05-14T11:33:03.921Z,59.31
2023-05-14T11:34:03.893Z,65.77
2023-05-14T11:35:03.934Z,61.92
2023-05-14T11:36:03.943Z,63.24
2023-05-14T11:37:03.945Z,62.55
2023-05-14T11:38:04.039Z,61.51
2023-05-14T11:39:03.961Z,65.27
2023-05-14T11:40:03.956Z,61.58
2023-05-14T11:41:03.972Z,64.65
2023-05-14T11:42:04.037Z,62.22
2023-05-14T11:43:04.042Z,60.56
2023-05-14T11:44:04.042Z,61.26
2023-05-14T11:45:04.047Z,64.23
2023-05-14T11:46:04.092Z,63.30
2023-05-14T11:47:04.083Z,64.56
2023-05-14T11:48:04.141Z,64.00
2023-05-14T11:49:04.084Z,64.37
2023-05-14T11:50:04.125Z,65.57
2023-05-14T11:51:04.142Z,67.66
2023-05-14T11:52:04.167Z,65.15
2023-05-14T11:53:04.545Z,66.20
2023-05-14T11:54:04.289Z,66.21
2023-05-14T11:55:04.213Z,63.37
2023-05-14T11:56:04.282Z,68.02
2023-05-14T11:57:04.361Z,63.01
2023-05-14T11:58:04.565Z,67.81
2023-05-14T11:59:04.426Z,62.66
2023-05-14T12:00:04.461Z,64.67
2023-05-14T12:01:04.439Z,66.30
2023-05-14T12:02:04.510Z,68.63
2023-05-14T12:03:04.679Z,62.48
2023-05-14T12:04:04.693Z,60.70
2023-05-14T12:05:05.597Z,60.45
2023-05-14T12:06:04.621Z,65.54
2023-05-14T12:07:04.634Z,65.29
2023-05-14T12:08:04.659Z,64.98
2023-05-14T12:09:04.701Z,63.91
2023-05-14T12:10:04.801Z,63.11
2023-05-14T12:11:04.702Z,67.31
2023-05-14T12:12:04.752Z,65.02
2023-05-14T12:13:05.021Z,61.66
2023-05-14T12:14:04.836Z,64.32
2023-05-14T12:15:04.860Z,65.39
2023-05-14T12:16:04.963Z,64.31
2023-05-14T12:17:04.949Z,61.72
2023-05-14T12:18:13.586Z,63.63
2023-05-14T12:19:06.062Z,63.83
2023-05-14T12:20:04.988Z,63.79
2023-05-14T12:21:05.001Z,63.75
2023-05-14T12:22:04.938Z,64.61
2023-05-14T12:23:05.041Z,62.59
2023-05-14T12:24:04.929Z,65.96
2023-05-14T12:25:04.931Z,66.74
2023-05-14T12:26:04.921Z,67.60
2023-05-14T12:27:04.925Z,60.86
2023-05-14T12:28:04.958Z,65.76
2023-05-14T12:29:05.030Z,65.62
2023-05-14T12:30:20.100Z,65.99
2023-05-14T12:31:06.062Z,66.10
2023-05-14T12:32:05.033Z,66.43
2023-05-14T12:33:05.041Z,66.36
2023-05-14T12:34:05.005Z,62.53
2023-05-14T12:35:05.027Z,65.87
2023-05-14T12:36:20.302Z,66.61
2023-05-14T12:37:05.969Z,66.82
2023-05-14T12:38:05.020Z,66.36
2023-05-14T12:39:05.037Z,67.35
2023-05-14T12:40:05.002Z,65.79
2023-05-14T12:41:04.935Z,61.74
2023-05-14T12:42:04.989Z,65.08
2023-05-14T12:43:04.950Z,66.27
2023-05-14T12:44:04.944Z,65.35
2023-05-14T12:45:05.046Z,63.31
2023-05-14T12:46:04.943Z,62.00
2023-05-14T12:47:05.000Z,66.49
2023-05-14T12:48:04.955Z,65.12
2023-05-14T12:49:04.958Z,65.57
2023-05-14T12:50:05.017Z,62.97
2023-05-14T12:51:05.043Z,63.19
2023-05-14T12:52:25.684Z,63.09